Time;durP1;ratioP1;P1;durP2;ratioP2;P2;SDS_P1;SDS_P2;PMS_P1;PMS_P2;Temp;Humidity;BMP_temperature;BMP_pressure;BME280_temperature;BME280_humidity;BME280_pressure;Samples;Min_cycle;Max_cycle;Signal;HPM_P1;HPM_P2
2023/12/07 00:01:57;;;;;;;12.25;7.47;;;;;;;;;;5094777;28;20032;-80
2023/12/07 00:04:22;;;;;;;11.02;7.50;;;;;;;;;;5044763;28;20029;-80
2023/12/07 00:06:48;;;;;;;13.32;8.15;;;;;;;;;;5045083;28;20450;-79
2023/12/07 00:09:13;;;;;;;11.30;7.65;;;;;;;;;;5049226;28;20029;-80
2023/12/07 00:11:39;;;;;;;11.27;7.43;;;;;;;;;;5067407;28;20039;-80
2023/12/07 00:14:04;;;;;;;11.35;7.32;;;;;;;;;;5051708;28;20033;-80
2023/12/07 00:16:30;;;;;;;12.00;7.70;;;;;;;;;;5051024;28;20020;-80
2023/12/07 00:18:55;;;;;;;11.63;7.35;;;;;;;;;;5049516;28;20039;-80
2023/12/07 00:21:20;;;;;;;11.45;7.90;;;;;;;;;;5052046;28;20038;-80
2023/12/07 00:23:46;;;;;;;10.23;7.43;;;;;;;;;;5044105;28;20425;-80
2023/12/07 00:26:11;;;;;;;11.70;8.23;;;;;;;;;;5030437;28;20114;-80
2023/12/07 00:28:38;;;;;;;12.43;8.05;;;;;;;;;;5062761;28;20398;-80
2023/12/07 00:31:03;;;;;;;10.65;7.97;;;;;;;;;;5061371;28;20470;-80
2023/12/07 00:33:30;;;;;;;10.52;7.60;;;;;;;;;;5065479;28;20044;-80
2023/12/07 00:35:55;;;;;;;12.07;8.07;;;;;;;;;;5061294;28;20032;-80
2023/12/07 00:38:21;;;;;;;12.98;8.02;;;;;;;;;;5062205;28;20059;-80
2023/12/07 00:40:47;;;;;;;13.13;8.70;;;;;;;;;;5059107;28;20028;-80
2023/12/07 00:43:12;;;;;;;12.15;8.23;;;;;;;;;;5060708;28;20047;-80
2023/12/07 00:45:38;;;;;;;13.52;8.98;;;;;;;;;;5059636;28;20040;-81
2023/12/07 00:48:04;;;;;;;12.98;8.52;;;;;;;;;;5059723;28;20032;-86
2023/12/07 00:50:29;;;;;;;11.93;8.57;;;;;;;;;;5064700;28;20043;-87
2023/12/07 00:52:55;;;;;;;13.07;8.80;;;;;;;;;;5058753;28;20401;-86
2023/12/07 00:55:20;;;;;;;12.23;7.85;;;;;;;;;;5075506;28;21934;-86
2023/12/07 00:57:46;;;;;;;11.55;8.18;;;;;;;;;;5046631;28;20025;-86
2023/12/07 01:00:11;;;;;;;11.57;7.78;;;;;;;;;;5051239;28;20029;-87
2023/12/07 01:02:37;;;;;;;11.48;7.70;;;;;;;;;;5062868;28;20444;-86
2023/12/07 01:05:02;;;;;;;12.38;8.43;;;;;;;;;;5065182;28;20040;-87
2023/12/07 01:07:28;;;;;;;12.20;8.30;;;;;;;;;;5046660;28;20445;-86
2023/12/07 01:09:53;;;;;;;11.38;8.38;;;;;;;;;;5039302;28;20090;-86
2023/12/07 01:12:19;;;;;;;10.93;7.93;;;;;;;;;;5055492;28;20130;-87
2023/12/07 01:14:44;;;;;;;12.43;8.10;;;;;;;;;;5050529;28;20055;-86
2023/12/07 01:17:10;;;;;;;10.95;7.78;;;;;;;;;;5041615;28;20044;-87
2023/12/07 01:19:35;;;;;;;11.52;7.85;;;;;;;;;;5051256;28;20183;-86
2023/12/07 01:22:01;;;;;;;12.07;8.30;;;;;;;;;;5036375;28;20052;-86
2023/12/07 01:24:26;;;;;;;11.38;7.93;;;;;;;;;;5034099;28;20094;-87
2023/12/07 01:26:52;;;;;;;11.45;8.38;;;;;;;;;;5036560;28;20151;-87
2023/12/07 01:29:17;;;;;;;12.63;8.13;;;;;;;;;;5095619;28;20043;-87
2023/12/07 01:31:43;;;;;;;12.32;8.25;;;;;;;;;;5050466;28;20043;-86
2023/12/07 01:34:09;;;;;;;12.68;8.55;;;;;;;;;;5065966;28;20024;-86
2023/12/07 01:36:34;;;;;;;12.23;8.48;;;;;;;;;;5065231;28;20051;-86
2023/12/07 01:39:00;;;;;;;12.80;8.50;;;;;;;;;;5064813;28;20076;-87
2023/12/07 01:41:25;;;;;;;14.32;9.30;;;;;;;;;;5053372;28;20036;-86
2023/12/07 01:43:51;;;;;;;13.27;9.02;;;;;;;;;;5050974;28;20089;-86
2023/12/07 01:46:17;;;;;;;12.32;8.73;;;;;;;;;;5049157;28;20643;-87
2023/12/07 01:48:42;;;;;;;12.20;8.85;;;;;;;;;;5061457;28;20029;-86
2023/12/07 01:51:10;;;;;;;12.43;8.65;;;;;;;;;;5063971;28;20376;-86
2023/12/07 01:53:37;;;;;;;12.68;8.77;;;;;;;;;;5056560;28;20089;-86
2023/12/07 01:56:03;;;;;;;12.63;9.18;;;;;;;;;;5061749;28;20029;-86
2023/12/07 01:58:29;;;;;;;11.88;8.68;;;;;;;;;;5053273;28;20028;-86
2023/12/07 02:00:55;;;;;;;12.38;8.88;;;;;;;;;;5069228;28;20027;-86
2023/12/07 02:03:20;;;;;;;12.68;9.02;;;;;;;;;;5066469;28;20379;-87
2023/12/07 02:05:48;;;;;;;15.35;9.13;;;;;;;;;;5065226;28;20127;-86
2023/12/07 02:08:14;;;;;;;14.93;9.00;;;;;;;;;;5066695;28;20028;-86
2023/12/07 02:10:40;;;;;;;13.07;8.77;;;;;;;;;;5068054;28;20090;-87
2023/12/07 02:13:06;;;;;;;12.65;8.52;;;;;;;;;;5063754;28;20115;-87
2023/12/07 02:15:32;;;;;;;15.75;9.90;;;;;;;;;;5057419;28;20036;-86
2023/12/07 02:18:16;;;;;;;11.70;8.60;;;;;;;;;;5058814;28;20106;-86
2023/12/07 02:21:02;;;;;;;13.68;8.90;;;;;;;;;;5061553;28;20056;-85
2023/12/07 02:23:29;;;;;;;13.80;8.48;;;;;;;;;;5060649;28;20024;-86
2023/12/07 02:25:58;;;;;;;12.93;8.98;;;;;;;;;;5064521;28;20070;-86
2023/12/07 02:28:24;;;;;;;13.80;9.55;;;;;;;;;;5056685;28;20037;-86
2023/12/07 02:30:49;;;;;;;13.75;9.30;;;;;;;;;;5050420;28;20044;-86
2023/12/07 02:33:15;;;;;;;14.65;9.10;;;;;;;;;;5066017;28;20032;-86
2023/12/07 02:35:41;;;;;;;13.60;9.00;;;;;;;;;;5065113;28;20062;-88
2023/12/07 02:38:08;;;;;;;15.20;9.45;;;;;;;;;;5064949;28;20067;-81
2023/12/07 02:40:35;;;;;;;12.95;9.43;;;;;;;;;;5061714;28;20504;-80
2023/12/07 02:43:02;;;;;;;12.80;8.75;;;;;;;;;;5062968;28;20103;-80
2023/12/07 02:45:29;;;;;;;17.55;9.68;;;;;;;;;;5062665;28;20381;-81
2023/12/07 02:47:54;;;;;;;13.93;9.90;;;;;;;;;;5063634;28;20036;-81
2023/12/07 02:50:20;;;;;;;15.73;9.85;;;;;;;;;;5060626;28;20098;-81
2023/12/07 02:52:45;;;;;;;13.65;9.48;;;;;;;;;;5062450;28;20036;-80
2023/12/07 02:55:12;;;;;;;14.23;9.82;;;;;;;;;;5060946;28;20116;-81
2023/12/07 02:57:38;;;;;;;15.80;10.23;;;;;;;;;;5066416;28;20059;-81
2023/12/07 03:00:07;;;;;;;14.90;10.20;;;;;;;;;;5063948;28;20083;-81
2023/12/07 03:02:37;;;;;;;16.48;10.70;;;;;;;;;;5068068;28;20504;-81
2023/12/07 03:05:03;;;;;;;14.27;9.85;;;;;;;;;;5062987;28;20056;-81
2023/12/07 03:07:29;;;;;;;16.45;10.20;;;;;;;;;;5070920;28;20120;-87
2023/12/07 03:09:55;;;;;;;16.90;10.60;;;;;;;;;;5070040;28;20064;-87
2023/12/07 03:12:20;;;;;;;17.27;10.57;;;;;;;;;;5084534;28;20441;-87
2023/12/07 03:14:45;;;;;;;14.70;9.93;;;;;;;;;;5048105;28;20032;-87
2023/12/07 03:17:11;;;;;;;15.73;10.00;;;;;;;;;;5064576;28;20048;-86
2023/12/07 03:19:41;;;;;;;13.65;9.52;;;;;;;;;;5068129;28;20453;-86
2023/12/07 03:22:08;;;;;;;15.85;10.43;;;;;;;;;;5062168;28;20021;-86
2023/12/07 03:24:37;;;;;;;15.38;10.15;;;;;;;;;;5057272;28;20028;-87
2023/12/07 03:27:02;;;;;;;18.25;11.18;;;;;;;;;;5072768;28;20047;-87
2023/12/07 03:29:28;;;;;;;17.90;11.20;;;;;;;;;;5070357;28;20382;-86
2023/12/07 03:31:53;;;;;;;16.95;10.82;;;;;;;;;;5051356;28;20032;-87
2023/12/07 03:34:19;;;;;;;17.58;11.15;;;;;;;;;;5040512;28;20031;-86
2023/12/07 03:36:48;;;;;;;17.33;10.93;;;;;;;;;;5050916;28;20361;-86
2023/12/07 03:39:15;;;;;;;18.23;11.48;;;;;;;;;;5069478;28;20542;-87
2023/12/07 03:41:40;;;;;;;19.70;11.98;;;;;;;;;;5072499;28;20032;-87
2023/12/07 03:44:06;;;;;;;20.83;12.13;;;;;;;;;;5024924;28;20394;-87
2023/12/07 03:46:31;;;;;;;19.48;11.93;;;;;;;;;;5063809;28;20079;-87
2023/12/07 03:48:57;;;;;;;16.35;10.32;;;;;;;;;;5041924;28;20028;-86
2023/12/07 03:51:22;;;;;;;16.95;10.60;;;;;;;;;;5055115;28;20048;-87
2023/12/07 03:53:47;;;;;;;17.65;10.63;;;;;;;;;;5051706;28;20399;-87
2023/12/07 03:56:24;;;;;;;17.05;10.73;;;;;;;;;;5065819;28;20440;-87
2023/12/07 03:58:49;;;;;;;16.13;10.00;;;;;;;;;;5062413;28;20090;-87
2023/12/07 04:01:15;;;;;;;15.05;10.35;;;;;;;;;;5053486;28;20058;-86
2023/12/07 04:03:40;;;;;;;15.48;10.30;;;;;;;;;;5054827;28;20105;-87
2023/12/07 04:06:06;;;;;;;17.30;10.05;;;;;;;;;;5044269;28;20025;-87
2023/12/07 04:08:31;;;;;;;14.90;10.52;;;;;;;;;;5080563;28;20064;-87
2023/12/07 04:10:57;;;;;;;15.60;10.13;;;;;;;;;;5058196;28;20085;-87
2023/12/07 04:13:22;;;;;;;15.85;10.48;;;;;;;;;;5039601;28;20112;-87
2023/12/07 04:15:49;;;;;;;16.40;10.60;;;;;;;;;;5076853;28;20033;-86
2023/12/07 04:18:15;;;;;;;15.93;9.98;;;;;;;;;;5049541;28;20497;-81
2023/12/07 04:20:41;;;;;;;15.60;10.40;;;;;;;;;;5069238;28;20036;-81
2023/12/07 04:23:06;;;;;;;15.35;9.77;;;;;;;;;;5068902;28;20033;-81
2023/12/07 04:25:33;;;;;;;16.35;10.13;;;;;;;;;;5068287;28;20020;-81
2023/12/07 04:28:00;;;;;;;15.35;10.13;;;;;;;;;;5065459;28;20032;-81
2023/12/07 04:30:25;;;;;;;15.27;10.20;;;;;;;;;;5066074;28;20054;-81
2023/12/07 04:32:52;;;;;;;16.48;10.98;;;;;;;;;;5079938;28;20158;-81
2023/12/07 04:35:19;;;;;;;16.02;10.30;;;;;;;;;;5065056;28;20040;-81
2023/12/07 04:37:48;;;;;;;18.02;10.15;;;;;;;;;;5067105;28;20038;-81
2023/12/07 04:40:16;;;;;;;15.30;10.18;;;;;;;;;;5060938;28;20036;-81
2023/12/07 04:42:42;;;;;;;15.80;10.60;;;;;;;;;;5065511;28;20032;-81
2023/12/07 04:45:08;;;;;;;14.30;9.43;;;;;;;;;;5068007;28;20029;-81
2023/12/07 04:47:34;;;;;;;14.93;9.80;;;;;;;;;;5060648;28;20032;-81
2023/12/07 04:49:59;;;;;;;15.40;10.45;;;;;;;;;;5064593;28;20032;-81
2023/12/07 04:52:25;;;;;;;15.50;10.45;;;;;;;;;;5033877;28;20056;-81
2023/12/07 04:54:50;;;;;;;15.82;9.95;;;;;;;;;;5052182;28;20405;-81
2023/12/07 04:57:16;;;;;;;16.13;10.68;;;;;;;;;;5064969;28;20489;-82
2023/12/07 04:59:46;;;;;;;17.02;10.45;;;;;;;;;;5052638;28;20043;-81
2023/12/07 05:02:16;;;;;;;15.52;10.18;;;;;;;;;;5067252;28;20105;-81
2023/12/07 05:04:42;;;;;;;16.52;10.55;;;;;;;;;;5065076;28;20128;-81
2023/12/07 05:07:08;;;;;;;16.95;10.88;;;;;;;;;;5047035;28;20034;-81
2023/12/07 05:09:33;;;;;;;16.88;11.07;;;;;;;;;;5061033;28;20016;-81
2023/12/07 05:12:00;;;;;;;18.92;11.52;;;;;;;;;;5060792;28;20077;-81
2023/12/07 05:14:28;;;;;;;15.20;10.30;;;;;;;;;;5058563;28;20040;-81
2023/12/07 05:16:55;;;;;;;17.40;11.15;;;;;;;;;;5060708;28;20032;-80
2023/12/07 05:19:24;;;;;;;17.77;10.45;;;;;;;;;;5063535;28;20104;-81
2023/12/07 05:21:53;;;;;;;15.38;10.00;;;;;;;;;;5061012;28;20500;-80
2023/12/07 05:24:20;;;;;;;18.13;10.40;;;;;;;;;;5071684;28;20043;-81
2023/12/07 05:26:49;;;;;;;17.23;10.85;;;;;;;;;;5066967;28;20017;-82
2023/12/07 05:29:15;;;;;;;15.88;9.77;;;;;;;;;;5066607;28;20028;-86
2023/12/07 05:31:40;;;;;;;16.20;10.10;;;;;;;;;;5062141;28;20033;-87
2023/12/07 05:34:07;;;;;;;17.50;9.85;;;;;;;;;;5063320;28;20401;-87
2023/12/07 05:36:32;;;;;;;15.82;9.80;;;;;;;;;;5063846;28;20028;-86
2023/12/07 05:38:58;;;;;;;15.38;9.82;;;;;;;;;;5084977;28;20024;-87
2023/12/07 05:41:25;;;;;;;18.15;11.15;;;;;;;;;;5052718;28;20407;-87
2023/12/07 05:43:51;;;;;;;17.55;10.40;;;;;;;;;;5051239;28;20032;-87
2023/12/07 05:46:16;;;;;;;18.35;10.70;;;;;;;;;;5064607;28;20568;-86
2023/12/07 05:48:42;;;;;;;18.83;11.05;;;;;;;;;;5050241;28;20029;-86
2023/12/07 05:51:17;;;;;;;18.55;10.57;;;;;;;;;;5036743;28;20063;-87
2023/12/07 05:53:44;;;;;;;17.25;10.45;;;;;;;;;;5048011;28;20051;-87
2023/12/07 05:56:11;;;;;;;17.50;10.45;;;;;;;;;;5069854;28;20025;-86
2023/12/07 05:58:36;;;;;;;18.30;10.57;;;;;;;;;;5048704;28;20123;-87
2023/12/07 06:01:02;;;;;;;17.67;10.38;;;;;;;;;;5032282;28;20190;-87
2023/12/07 06:03:28;;;;;;;17.90;10.95;;;;;;;;;;5034154;28;20056;-87
2023/12/07 06:05:53;;;;;;;19.23;11.07;;;;;;;;;;5049714;28;20083;-87
2023/12/07 06:08:19;;;;;;;17.75;10.52;;;;;;;;;;5062491;28;20040;-87
2023/12/07 06:10:45;;;;;;;19.10;10.82;;;;;;;;;;5044028;28;20115;-86
2023/12/07 06:13:10;;;;;;;17.85;10.75;;;;;;;;;;5052530;28;20028;-87
2023/12/07 06:15:36;;;;;;;16.83;9.98;;;;;;;;;;5062602;28;20048;-87
2023/12/07 06:18:03;;;;;;;16.83;10.30;;;;;;;;;;5056167;28;20032;-81
2023/12/07 06:20:31;;;;;;;17.50;10.45;;;;;;;;;;5060060;28;20090;-81
2023/12/07 06:22:58;;;;;;;13.32;8.52;;;;;;;;;;5059455;28;20387;-81
2023/12/07 06:25:24;;;;;;;17.75;10.32;;;;;;;;;;5077599;28;20037;-81
2023/12/07 06:27:50;;;;;;;16.23;9.60;;;;;;;;;;5061112;28;20033;-86
2023/12/07 06:30:15;;;;;;;16.30;9.25;;;;;;;;;;5063593;28;20024;-87
2023/12/07 06:32:41;;;;;;;15.52;8.93;;;;;;;;;;5071232;28;20101;-87
2023/12/07 06:35:07;;;;;;;15.88;9.57;;;;;;;;;;5084435;28;20138;-87
2023/12/07 06:37:33;;;;;;;17.55;8.85;;;;;;;;;;5068063;28;20047;-87
2023/12/07 06:39:59;;;;;;;15.27;8.38;;;;;;;;;;5064142;28;20062;-87
2023/12/07 06:42:26;;;;;;;15.60;8.43;;;;;;;;;;5089308;28;20029;-87
2023/12/07 06:44:51;;;;;;;12.10;7.10;;;;;;;;;;5069418;28;20028;-86
2023/12/07 06:47:18;;;;;;;12.75;7.70;;;;;;;;;;5069450;28;20103;-87
2023/12/07 06:49:44;;;;;;;15.88;8.10;;;;;;;;;;5067764;28;20025;-87
2023/12/07 06:52:10;;;;;;;13.02;7.47;;;;;;;;;;5073298;28;20115;-87
2023/12/07 06:54:36;;;;;;;12.65;7.05;;;;;;;;;;5084373;28;20090;-87
2023/12/07 06:57:02;;;;;;;12.95;7.35;;;;;;;;;;5063410;28;20040;-87
2023/12/07 06:59:28;;;;;;;13.38;7.55;;;;;;;;;;5053500;28;20028;-87
2023/12/07 07:01:54;;;;;;;11.02;6.57;;;;;;;;;;5081775;28;20040;-87
2023/12/07 07:04:19;;;;;;;14.18;7.18;;;;;;;;;;5058915;28;20033;-88
2023/12/07 07:06:46;;;;;;;12.60;7.18;;;;;;;;;;5068800;28;20032;-87
2023/12/07 07:09:13;;;;;;;13.07;7.30;;;;;;;;;;5067181;28;20556;-87
2023/12/07 07:11:38;;;;;;;10.98;6.05;;;;;;;;;;5066094;28;20032;-87
2023/12/07 07:14:04;;;;;;;11.07;6.43;;;;;;;;;;5049620;28;20033;-87
2023/12/07 07:16:30;;;;;;;10.27;5.88;;;;;;;;;;5068896;28;20086;-86
2023/12/07 07:18:55;;;;;;;10.50;5.60;;;;;;;;;;5072170;28;20048;-87
2023/12/07 07:21:21;;;;;;;13.38;6.47;;;;;;;;;;5067282;28;20033;-86
2023/12/07 07:23:46;;;;;;;10.68;6.07;;;;;;;;;;5053152;28;20033;-87
2023/12/07 07:26:16;;;;;;;11.27;5.78;;;;;;;;;;5036852;28;20024;-86
2023/12/07 07:28:42;;;;;;;12.85;7.25;;;;;;;;;;5051122;28;20563;-86
2023/12/07 07:31:08;;;;;;;13.65;6.85;;;;;;;;;;5076489;28;20424;-86
2023/12/07 07:33:33;;;;;;;12.05;5.70;;;;;;;;;;5063283;28;20043;-86
2023/12/07 07:35:58;;;;;;;13.10;6.10;;;;;;;;;;5065208;28;20097;-86
2023/12/07 07:38:24;;;;;;;11.38;6.20;;;;;;;;;;5068621;28;20394;-85
2023/12/07 07:40:50;;;;;;;11.38;5.97;;;;;;;;;;5060313;28;20402;-86
2023/12/07 07:43:15;;;;;;;12.65;5.95;;;;;;;;;;5050689;28;20036;-86
2023/12/07 07:45:41;;;;;;;11.52;5.70;;;;;;;;;;5050401;28;20401;-86
2023/12/07 07:48:06;;;;;;;11.60;5.70;;;;;;;;;;5049388;28;20059;-86
2023/12/07 07:50:31;;;;;;;10.43;5.80;;;;;;;;;;5052834;28;20040;-86
2023/12/07 07:52:57;;;;;;;9.95;5.55;;;;;;;;;;5079331;28;20036;-86
2023/12/07 07:55:22;;;;;;;9.63;5.13;;;;;;;;;;5063972;28;20375;-85
2023/12/07 07:57:50;;;;;;;9.85;5.10;;;;;;;;;;5065666;28;20025;-81
2023/12/07 08:00:16;;;;;;;10.63;5.50;;;;;;;;;;5065081;28;20033;-81
2023/12/07 08:02:41;;;;;;;9.43;5.30;;;;;;;;;;5052436;28;20382;-81
2023/12/07 08:05:07;;;;;;;10.25;5.45;;;;;;;;;;5043248;28;20032;-80
2023/12/07 08:07:32;;;;;;;9.57;5.05;;;;;;;;;;5069511;28;20465;-81
2023/12/07 08:09:58;;;;;;;10.00;5.15;;;;;;;;;;5051501;28;20513;-81
2023/12/07 08:12:23;;;;;;;10.20;5.25;;;;;;;;;;5052347;28;20036;-81
2023/12/07 08:14:49;;;;;;;10.10;5.18;;;;;;;;;;5066370;28;20041;-80
2023/12/07 08:17:14;;;;;;;9.90;5.05;;;;;;;;;;5049497;28;20503;-80
2023/12/07 08:19:43;;;;;;;8.98;4.88;;;;;;;;;;5064028;28;20064;-81
2023/12/07 08:22:10;;;;;;;10.55;5.47;;;;;;;;;;5080722;28;20039;-80
2023/12/07 08:24:40;;;;;;;10.18;5.80;;;;;;;;;;5067168;28;20025;-82
2023/12/07 08:27:05;;;;;;;10.13;5.35;;;;;;;;;;5069293;28;20029;-80
2023/12/07 08:29:30;;;;;;;11.25;5.55;;;;;;;;;;5063240;28;20024;-80
2023/12/07 08:31:56;;;;;;;10.07;5.25;;;;;;;;;;5066750;28;20035;-80
2023/12/07 08:34:21;;;;;;;10.90;5.53;;;;;;;;;;5083007;28;20033;-80
2023/12/07 08:36:47;;;;;;;10.43;5.32;;;;;;;;;;5068467;28;20040;-80
2023/12/07 08:39:14;;;;;;;9.93;4.90;;;;;;;;;;5063048;28;20021;-80
2023/12/07 08:41:39;;;;;;;8.90;4.68;;;;;;;;;;5065001;28;20063;-80
2023/12/07 08:44:05;;;;;;;10.45;5.10;;;;;;;;;;5065929;28;20059;-80
2023/12/07 08:46:30;;;;;;;9.32;4.50;;;;;;;;;;5063169;28;20031;-80
2023/12/07 08:48:56;;;;;;;10.13;4.63;;;;;;;;;;5048339;28;20450;-79
2023/12/07 08:51:24;;;;;;;8.55;4.85;;;;;;;;;;5048562;28;20044;-80
2023/12/07 08:53:51;;;;;;;9.73;4.80;;;;;;;;;;5060012;28;20035;-80
2023/12/07 08:56:17;;;;;;;10.60;4.75;;;;;;;;;;5064262;28;20040;-80
2023/12/07 08:58:44;;;;;;;11.15;5.80;;;;;;;;;;5059846;28;20032;-80
2023/12/07 09:01:09;;;;;;;10.05;5.05;;;;;;;;;;5064368;28;20032;-79
2023/12/07 09:03:35;;;;;;;9.57;4.70;;;;;;;;;;5061494;28;20083;-79
2023/12/07 09:06:01;;;;;;;9.73;4.88;;;;;;;;;;5059693;28;20394;-79
2023/12/07 09:08:26;;;;;;;11.40;5.53;;;;;;;;;;5063002;28;20028;-85
2023/12/07 09:10:52;;;;;;;12.60;5.53;;;;;;;;;;5050491;28;20109;-84
2023/12/07 09:13:18;;;;;;;11.60;6.00;;;;;;;;;;5051964;28;20495;-85
2023/12/07 09:15:43;;;;;;;14.93;7.05;;;;;;;;;;5097381;28;20040;-84
2023/12/07 09:18:10;;;;;;;16.85;6.88;;;;;;;;;;5064103;28;20027;-84
2023/12/07 09:20:37;;;;;;;14.68;6.68;;;;;;;;;;5095234;27;20138;-83
2023/12/07 09:23:04;;;;;;;15.93;7.75;;;;;;;;;;5062371;28;20130;-84
2023/12/07 09:25:30;;;;;;;18.08;7.88;;;;;;;;;;5062537;28;20028;-84
2023/12/07 09:27:56;;;;;;;19.27;7.78;;;;;;;;;;5075729;28;20345;-84
2023/12/07 09:30:22;;;;;;;18.55;8.15;;;;;;;;;;5031486;28;20051;-84
2023/12/07 09:32:47;;;;;;;20.30;8.15;;;;;;;;;;5066693;28;20102;-84
2023/12/07 09:35:20;;;;;;;20.38;8.80;;;;;;;;;;5064578;28;20082;-84
2023/12/07 09:37:46;;;;;;;17.60;7.68;;;;;;;;;;5058848;28;20114;-84
2023/12/07 09:40:19;;;;;;;18.73;9.10;;;;;;;;;;5064334;28;20041;-84
2023/12/07 09:42:47;;;;;;;18.42;8.80;;;;;;;;;;5067477;28;20033;-84
2023/12/07 09:45:19;;;;;;;21.48;9.18;;;;;;;;;;5066019;28;20466;-84
2023/12/07 09:47:49;;;;;;;17.98;9.02;;;;;;;;;;5064413;28;20028;-83
2023/12/07 09:50:21;;;;;;;18.60;8.80;;;;;;;;;;5068505;28;20123;-84
2023/12/07 09:52:49;;;;;;;22.60;8.98;;;;;;;;;;5068255;28;20036;-83
2023/12/07 09:55:19;;;;;;;20.33;8.88;;;;;;;;;;5079002;28;20042;-84
2023/12/07 09:57:46;;;;;;;20.38;8.75;;;;;;;;;;5053378;28;20089;-83
2023/12/07 10:00:14;;;;;;;19.17;8.52;;;;;;;;;;5064029;28;20032;-84
2023/12/07 10:02:41;;;;;;;21.40;9.30;;;;;;;;;;5060524;28;20029;-83
2023/12/07 10:05:09;;;;;;;19.35;8.77;;;;;;;;;;5066376;28;20029;-84
2023/12/07 10:07:37;;;;;;;21.55;9.45;;;;;;;;;;5063501;28;20097;-84
2023/12/07 10:10:04;;;;;;;21.00;9.70;;;;;;;;;;5068255;28;20024;-84
2023/12/07 10:12:36;;;;;;;23.73;9.38;;;;;;;;;;5067528;28;20040;-84
2023/12/07 10:15:23;;;;;;;23.80;10.23;;;;;;;;;;5062992;28;20115;-83
2023/12/07 10:17:58;;;;;;;23.02;8.77;;;;;;;;;;5064357;28;20151;-84
2023/12/07 10:20:25;;;;;;;20.63;9.18;;;;;;;;;;5060635;28;20035;-84
2023/12/07 10:23:02;;;;;;;28.23;11.10;;;;;;;;;;5067971;28;20049;-84
2023/12/07 10:25:29;;;;;;;22.95;10.43;;;;;;;;;;5066265;28;20416;-84
2023/12/07 10:27:55;;;;;;;24.25;10.85;;;;;;;;;;5063965;28;20401;-84
2023/12/07 10:30:25;;;;;;;22.80;10.40;;;;;;;;;;5051736;28;20028;-83
2023/12/07 10:32:51;;;;;;;25.67;11.23;;;;;;;;;;5069993;28;20032;-84
2023/12/07 10:35:18;;;;;;;27.17;11.15;;;;;;;;;;5051563;28;20021;-84
2023/12/07 10:37:43;;;;;;;27.23;11.00;;;;;;;;;;5048644;28;20033;-83
2023/12/07 10:40:10;;;;;;;23.85;9.65;;;;;;;;;;5044501;28;20055;-84
2023/12/07 10:42:37;;;;;;;26.95;11.82;;;;;;;;;;5051315;28;20440;-83
2023/12/07 10:45:06;;;;;;;26.50;11.50;;;;;;;;;;5080297;28;20121;-84
2023/12/07 10:47:37;;;;;;;25.30;10.40;;;;;;;;;;5034241;28;20025;-83
2023/12/07 10:50:10;;;;;;;21.55;8.80;;;;;;;;;;5067553;28;20181;-83
2023/12/07 10:52:40;;;;;;;24.10;9.88;;;;;;;;;;5061998;28;20103;-83
2023/12/07 10:55:25;;;;;;;26.17;11.13;;;;;;;;;;5064482;28;20033;-83
2023/12/07 10:57:53;;;;;;;24.40;10.30;;;;;;;;;;5070371;28;20035;-83
2023/12/07 11:00:20;;;;;;;25.13;9.82;;;;;;;;;;5063241;28;20095;-84
2023/12/07 11:02:47;;;;;;;20.58;10.13;;;;;;;;;;5081733;28;20058;-83
2023/12/07 11:05:12;;;;;;;23.88;10.32;;;;;;;;;;5047870;28;20502;-84
2023/12/07 11:07:47;;;;;;;20.33;9.98;;;;;;;;;;5048746;28;20047;-81
2023/12/07 11:10:21;;;;;;;19.88;10.07;;;;;;;;;;5063979;28;20039;-83
2023/12/07 11:12:56;;;;;;;20.38;9.75;;;;;;;;;;5050975;28;20135;-84
2023/12/07 11:15:23;;;;;;;20.08;9.48;;;;;;;;;;5060530;28;20025;-84
2023/12/07 11:17:54;;;;;;;20.58;9.63;;;;;;;;;;5067315;28;20032;-83
2023/12/07 11:20:21;;;;;;;20.73;10.10;;;;;;;;;;5086997;28;20044;-83
2023/12/07 11:22:50;;;;;;;19.92;9.52;;;;;;;;;;5048047;28;20283;-83
2023/12/07 11:25:17;;;;;;;19.42;9.80;;;;;;;;;;5077638;28;20029;-83
2023/12/07 11:27:47;;;;;;;18.65;9.57;;;;;;;;;;5058687;28;20032;-78
2023/12/07 11:30:14;;;;;;;21.83;10.30;;;;;;;;;;5065226;28;20030;-78
2023/12/07 11:32:39;;;;;;;22.15;10.55;;;;;;;;;;5041923;28;20116;-78
2023/12/07 11:35:05;;;;;;;20.30;10.50;;;;;;;;;;5059232;28;20508;-78
2023/12/07 11:38:11;;;;;;;21.20;9.93;;;;;;;;;;5066769;28;20486;-78
2023/12/07 11:40:40;;;;;;;18.15;9.35;;;;;;;;;;5056200;28;20064;-78
2023/12/07 11:43:06;;;;;;;19.75;9.73;;;;;;;;;;5059805;28;20044;-78
2023/12/07 11:45:48;;;;;;;19.20;9.48;;;;;;;;;;5062974;28;20081;-78
2023/12/07 11:48:15;;;;;;;19.60;9.90;;;;;;;;;;5061421;28;20033;-78
2023/12/07 11:51:07;;;;;;;20.80;10.07;;;;;;;;;;5054787;28;20277;-78
2023/12/07 11:53:34;;;;;;;20.80;9.40;;;;;;;;;;5053135;28;20068;-78
2023/12/07 11:56:08;;;;;;;20.20;9.85;;;;;;;;;;5060020;28;20078;-78
2023/12/07 11:58:36;;;;;;;19.77;9.73;;;;;;;;;;5063980;28;20077;-78
2023/12/07 12:01:04;;;;;;;18.83;9.70;;;;;;;;;;5062819;28;20078;-78
2023/12/07 12:03:32;;;;;;;22.45;9.82;;;;;;;;;;5067059;28;20025;-78
2023/12/07 12:05:57;;;;;;;17.20;9.20;;;;;;;;;;5059808;28;20028;-78
2023/12/07 12:08:23;;;;;;;20.13;9.85;;;;;;;;;;5059702;28;20024;-78
2023/12/07 12:10:56;;;;;;;19.67;9.88;;;;;;;;;;5063186;28;20064;-79
2023/12/07 12:13:26;;;;;;;;;;;;;;;;;;5062497;28;20070;-78
2023/12/07 12:15:51;;;;;;;17.70;8.23;;;;;;;;;;5064576;28;20101;-78
2023/12/07 12:18:17;;;;;;;20.08;10.63;;;;;;;;;;5064473;28;20110;-78
2023/12/07 12:20:45;;;;;;;18.48;9.93;;;;;;;;;;5063569;28;20453;-78
2023/12/07 12:23:10;;;;;;;19.42;10.30;;;;;;;;;;5062507;28;20078;-78
2023/12/07 12:25:39;;;;;;;18.65;10.13;;;;;;;;;;5065654;28;20032;-79
2023/12/07 12:28:06;;;;;;;18.02;10.48;;;;;;;;;;5064505;28;20028;-78
2023/12/07 12:30:33;;;;;;;20.45;10.90;;;;;;;;;;5061997;28;20124;-78
2023/12/07 12:33:01;;;;;;;20.25;11.20;;;;;;;;;;5062991;28;20115;-78
2023/12/07 12:35:27;;;;;;;19.55;10.20;;;;;;;;;;5063201;28;20501;-79
2023/12/07 12:37:55;;;;;;;21.05;11.02;;;;;;;;;;5061201;28;20045;-84
2023/12/07 12:40:23;;;;;;;22.67;11.30;;;;;;;;;;5066075;28;20029;-84
2023/12/07 12:42:50;;;;;;;20.65;11.40;;;;;;;;;;5068037;28;20024;-83
2023/12/07 12:45:18;;;;;;;24.25;11.43;;;;;;;;;;5066723;28;20033;-84
2023/12/07 12:47:45;;;;;;;25.73;12.15;;;;;;;;;;5048051;28;20420;-84
2023/12/07 12:50:13;;;;;;;25.80;12.13;;;;;;;;;;5052849;28;20025;-84
2023/12/07 12:52:42;;;;;;;25.95;12.43;;;;;;;;;;5048679;28;20037;-83
2023/12/07 12:55:10;;;;;;;24.30;13.02;;;;;;;;;;5049133;28;20028;-84
2023/12/07 12:57:38;;;;;;;23.10;12.70;;;;;;;;;;5051023;28;20063;-83
2023/12/07 13:00:04;;;;;;;23.13;12.70;;;;;;;;;;5052981;28;20112;-84
2023/12/07 13:02:29;;;;;;;22.88;12.27;;;;;;;;;;5068123;28;20025;-85
2023/12/07 13:04:55;;;;;;;28.35;14.02;;;;;;;;;;5053424;28;20033;-84
2023/12/07 13:07:24;;;;;;;26.73;13.55;;;;;;;;;;5047223;28;20551;-84
2023/12/07 13:09:50;;;;;;;29.08;14.20;;;;;;;;;;5032505;28;20063;-83
2023/12/07 13:12:15;;;;;;;29.05;14.10;;;;;;;;;;5028480;28;20056;-84
2023/12/07 13:14:41;;;;;;;26.63;13.38;;;;;;;;;;5046760;28;21236;-84
2023/12/07 13:17:07;;;;;;;25.80;14.15;;;;;;;;;;5047631;28;20502;-84
2023/12/07 13:19:33;;;;;;;29.42;14.45;;;;;;;;;;5040958;28;20128;-84
2023/12/07 13:21:59;;;;;;;27.20;14.52;;;;;;;;;;5043253;28;20041;-85
2023/12/07 13:24:25;;;;;;;28.15;14.45;;;;;;;;;;5030344;28;20059;-85
2023/12/07 13:26:51;;;;;;;27.85;14.10;;;;;;;;;;5044929;28;20036;-85
2023/12/07 13:29:16;;;;;;;29.05;14.13;;;;;;;;;;5051060;28;20706;-85
2023/12/07 13:31:42;;;;;;;28.92;14.73;;;;;;;;;;5059658;28;20037;-84
2023/12/07 13:34:08;;;;;;;29.40;14.20;;;;;;;;;;5047725;28;20118;-84
2023/12/07 13:36:35;;;;;;;27.10;14.20;;;;;;;;;;5057694;28;20549;-85
2023/12/07 13:39:04;;;;;;;30.23;14.45;;;;;;;;;;5045768;28;20033;-84
2023/12/07 13:41:29;;;;;;;29.33;14.15;;;;;;;;;;5045396;28;20036;-85
2023/12/07 13:43:56;;;;;;;26.45;13.82;;;;;;;;;;5058035;28;20020;-85
2023/12/07 13:46:21;;;;;;;28.55;13.93;;;;;;;;;;5058684;28;20040;-83
2023/12/07 13:48:48;;;;;;;29.13;13.90;;;;;;;;;;5028130;28;20024;-84
2023/12/07 13:51:13;;;;;;;28.15;14.27;;;;;;;;;;5060768;28;20032;-85
2023/12/07 13:53:39;;;;;;;30.40;14.15;;;;;;;;;;5055502;28;20062;-83
2023/12/07 13:56:05;;;;;;;23.80;12.07;;;;;;;;;;5040477;28;20060;-84
2023/12/07 13:58:31;;;;;;;27.35;14.18;;;;;;;;;;5057645;28;20040;-84
2023/12/07 14:00:57;;;;;;;26.30;13.20;;;;;;;;;;5058632;28;20086;-84
2023/12/07 14:03:22;;;;;;;24.85;12.23;;;;;;;;;;5044847;28;20380;-85
2023/12/07 14:05:48;;;;;;;26.65;12.35;;;;;;;;;;5064173;28;20342;-84
2023/12/07 14:08:14;;;;;;;26.33;13.13;;;;;;;;;;5046174;28;20115;-85
2023/12/07 14:10:39;;;;;;;28.73;13.60;;;;;;;;;;5046947;28;20035;-85
2023/12/07 14:13:05;;;;;;;24.25;12.30;;;;;;;;;;5041677;28;20056;-84
2023/12/07 14:15:32;;;;;;;24.33;11.85;;;;;;;;;;5039326;28;20116;-85
2023/12/07 14:18:00;;;;;;;33.63;18.02;;;;;;;;;;5060599;28;20024;-84
2023/12/07 14:20:27;;;;;;;24.73;13.02;;;;;;;;;;5075045;28;20062;-84
2023/12/07 14:22:53;;;;;;;25.45;12.38;;;;;;;;;;5042166;28;20528;-84
2023/12/07 14:25:19;;;;;;;26.55;12.77;;;;;;;;;;5045273;28;20041;-84